Time;durP1;ratioP1;P1;durP2;ratioP2;P2;SDS_P1;SDS_P2;PMS_P1;PMS_P2;Temp;Humidity;BMP_temperature;BMP_pressure;BME280_temperature;BME280_humidity;BME280_pressure;Samples;Min_cycle;Max_cycle;Signal;HPM_P1;HPM_P2
2021/01/16 00:02:06;;;;;;;8.32;3.17;;;;;;;;;;5012422;28;20501;-80
2021/01/16 00:04:32;;;;;;;6.90;3.75;;;;;;;;;;5022003;28;20029;-80
2021/01/16 00:06:59;;;;;;;6.20;3.45;;;;;;;;;;5000050;28;20113;-80
2021/01/16 00:09:25;;;;;;;5.47;3.60;;;;;;;;;;5013860;28;20029;-80
2021/01/16 00:11:51;;;;;;;6.82;2.88;;;;;;;;;;5012710;28;20033;-81
2021/01/16 00:14:17;;;;;;;2.95;2.13;;;;;;;;;;5028991;28;20036;-80
2021/01/16 00:16:43;;;;;;;5.93;4.07;;;;;;;;;;5014001;28;20101;-80
2021/01/16 00:19:10;;;;;;;4.03;2.80;;;4.60;71.80;;;;;;5012488;28;20026;-81
2021/01/16 00:21:36;;;;;;;8.60;3.50;;;;;;;;;;5012547;28;20030;-80
2021/01/16 00:24:02;;;;;;;6.10;3.45;;;;;;;;;;5012599;28;20037;-80
2021/01/16 00:26:28;;;;;;;6.05;2.55;;;;;;;;;;5012138;28;20104;-80
2021/01/16 00:28:54;;;;;;;3.65;2.47;;;;;;;;;;5021290;28;20223;-80
2021/01/16 00:31:20;;;;;;;5.80;3.60;;;;;;;;;;5013593;28;20049;-80
2021/01/16 00:33:46;;;;;;;6.32;3.50;;;;;;;;;;5012394;28;20044;-80
2021/01/16 00:36:12;;;;;;;4.88;2.60;;;;;;;;;;5013519;28;20045;-80
2021/01/16 00:38:40;;;;;;;7.05;3.13;;;3.50;51.00;;;;;;5012501;28;20108;-80
2021/01/16 00:41:06;;;;;;;11.65;2.58;;;;;;;;;;5028708;28;20032;-80
2021/01/16 00:43:32;;;;;;;5.82;3.55;;;;;;;;;;5028525;28;20454;-80
2021/01/16 00:45:59;;;;;;;4.75;3.20;;;;;;;;;;5013451;28;20030;-81
2021/01/16 00:48:25;;;;;;;3.38;2.08;;;;;;;;;;5011825;28;20517;-80
2021/01/16 00:50:55;;;;;;;5.95;3.58;;;3.30;51.10;;;;;;5013511;28;20022;-81
2021/01/16 00:53:22;;;;;;;5.25;2.67;;;;;;;;;;5013309;28;20018;-81
2021/01/16 00:55:49;;;;;;;4.05;2.45;;;3.60;51.30;;;;;;5013533;28;20368;-81
2021/01/16 00:58:20;;;;;;;3.42;2.05;;;3.40;51.20;;;;;;5011904;28;20026;-80
2021/01/16 01:00:48;;;;;;;4.53;3.00;;;3.30;50.70;;;;;;5005309;28;20325;-80
2021/01/16 01:03:19;;;;;;;5.53;2.53;;;3.20;51.20;;;;;;4992307;28;20499;-80
2021/01/16 01:05:45;;;;;;;5.22;2.53;;;;;;;;;;5011793;28;20049;-81
2021/01/16 01:08:11;;;;;;;5.38;2.47;;;;;;;;;;5019318;28;20022;-81
2021/01/16 01:10:56;;;;;;;4.10;2.10;;;3.20;49.90;;;;;;5011598;28;20022;-80
2021/01/16 01:13:22;;;;;;;4.05;2.00;;;;;;;;;;5011968;28;20021;-81
2021/01/16 01:15:48;;;;;;;2.88;2.38;;;3.50;50.50;;;;;;5028158;28;20036;-81
2021/01/16 01:18:14;;;;;;;10.70;2.33;;;;;;;;;;5011897;28;20125;-81
2021/01/16 01:20:40;;;;;;;4.68;2.03;;;;;;;;;;5013130;28;20026;-81
2021/01/16 01:23:07;;;;;;;2.70;1.73;;;;;;;;;;5007498;28;20019;-81
2021/01/16 01:25:33;;;;;;;3.53;1.90;;;;;;;;;;5024881;28;20054;-80
2021/01/16 01:28:00;;;;;;;2.95;2.13;;;3.60;49.10;;;;;;5036071;28;20028;-81
2021/01/16 01:30:28;;;;;;;6.30;2.08;;;3.30;48.60;;;;;;5013108;28;20030;-81
2021/01/16 01:32:55;;;;;;;4.30;3.10;;;3.10;49.50;;;;;;5011428;28;20030;-81
2021/01/16 01:35:21;;;;;;;4.50;3.60;;;;;;;;;;5011718;28;20018;-81
2021/01/16 01:37:53;;;;;;;8.13;2.33;;;3.30;48.80;;;;;;5011890;28;20796;-81
2021/01/16 01:40:22;;;;;;;3.17;1.45;;;3.20;49.30;;;;;;5018394;28;20033;-81
2021/01/16 01:42:53;;;;;;;3.25;1.88;;;3.60;49.20;;;;;;4993197;28;20026;-81
2021/01/16 01:45:20;;;;;;;5.85;2.60;;;3.70;48.80;;;;;;5005324;28;20045;-81
2021/01/16 01:47:47;;;;;;;3.33;2.20;;;4.00;47.90;;;;;;5023594;28;20030;-80
2021/01/16 01:50:14;;;;;;;2.80;1.60;;;4.30;47.00;;;;;;4992081;28;20094;-81
2021/01/16 01:52:40;;;;;;;;;;;4.40;46.30;;;;;;5006008;28;20113;-81
2021/01/16 01:55:08;;;;;;;2.83;1.92;;;4.00;47.40;;;;;;5000353;28;19980;-80
2021/01/16 01:57:38;;;;;;;4.47;2.35;;;4.20;47.10;;;;;;5011452;28;20041;-81
2021/01/16 02:00:07;;;;;;;3.05;2.25;;;4.20;47.20;;;;;;4999548;28;20030;-80
2021/01/16 02:02:37;;;;;;;9.90;3.28;;;4.10;47.30;;;;;;5011429;28;20030;-81
2021/01/16 02:05:06;;;;;;;2.17;1.55;;;4.20;47.20;;;;;;5027799;28;20421;-81
2021/01/16 02:07:38;;;;;;;6.72;2.60;;;;;;;;;;5011328;28;20036;-81
2021/01/16 02:10:24;;;;;;;5.93;2.42;;;4.10;69.40;;;;;;5012465;28;20458;-81
2021/01/16 02:12:55;;;;;;;3.80;2.13;;;3.80;68.80;;;;;;5013689;28;20050;-80
2021/01/16 02:15:42;;;;;;;3.05;1.95;;;3.70;69.90;;;;;;5002364;28;20022;-81
2021/01/16 02:18:26;;;;;;;1.58;1.42;;;3.60;48.70;;;;;;5017250;28;20030;-81
2021/01/16 02:20:57;;;;;;;3.40;2.15;;;3.40;48.90;;;;;;4996916;28;20081;-81
2021/01/16 02:23:31;;;;;;;3.13;2.33;;;3.20;48.80;;;;;;5008912;28;20019;-81
2021/01/16 02:26:15;;;;;;;4.68;1.85;;;3.10;71.70;;;;;;4996639;28;20033;-81
2021/01/16 02:29:02;;;;;;;6.10;2.88;;;3.00;49.10;;;;;;5013349;28;20022;-81
2021/01/16 02:31:39;;;;;;;3.15;2.00;;;2.80;71.80;;;;;;5014661;28;20509;-81
2021/01/16 02:34:07;;;;;;;3.97;2.27;;;3.00;49.00;;;;;;4996343;28;20069;-81
2021/01/16 02:36:52;;;;;;;2.55;1.55;;;2.70;71.70;;;;;;5007064;28;20260;-81
2021/01/16 02:39:41;;;;;;;4.53;2.45;;;3.00;49.30;;;;;;5027332;28;20050;-81
2021/01/16 02:42:14;;;;;;;4.72;1.88;;;3.00;48.80;;;;;;4999664;28;20031;-81
2021/01/16 02:44:55;;;;;;;2.85;2.30;;;3.20;57.10;;;;;;5004790;28;20574;-81
2021/01/16 02:47:24;;;;;;;1.50;1.40;;;;;;;;;;5010713;28;20030;-81
2021/01/16 02:49:59;;;;;;;2.60;1.63;;;2.90;48.50;;;;;;5004309;28;20025;-80
2021/01/16 02:52:29;;;;;;;2.20;1.83;;;2.80;48.60;;;;;;4998676;28;20018;-80
2021/01/16 02:54:56;;;;;;;1.77;1.55;;;2.70;48.50;;;;;;5005436;28;20026;-81
2021/01/16 02:57:22;;;;;;;2.35;1.63;;;;;;;;;;5014100;28;20036;-81
2021/01/16 02:59:48;;;;;;;2.80;1.92;;;;;;;;;;5014140;28;20030;-81
2021/01/16 03:02:16;;;;;;;2.60;1.85;;;2.40;49.70;;;;;;5015375;28;20088;-80
2021/01/16 03:04:42;;;;;;;5.13;3.50;;;;;;;;;;5014120;28;20025;-81
2021/01/16 03:07:09;;;;;;;4.53;2.47;;;2.50;48.50;;;;;;5003238;28;20035;-81
2021/01/16 03:09:36;;;;;;;3.63;2.42;;;2.70;48.80;;;;;;4999899;28;20032;-81
2021/01/16 03:12:03;;;;;;;3.20;2.15;;;2.70;48.90;;;;;;5013927;28;20080;-81
2021/01/16 03:14:57;;;;;;;3.88;1.70;;;2.60;48.70;;;;;;5013737;28;20021;-80
2021/01/16 03:17:32;;;;;;;1.60;0.68;;;;;;;;;;5002533;28;20038;-80
2021/01/16 03:19:59;;;;;;;1.50;1.38;;;2.60;47.90;;;;;;5013287;28;20097;-80
2021/01/16 03:22:26;;;;;;;2.75;1.83;;;2.70;48.20;;;;;;5013676;28;20072;-80
2021/01/16 03:24:54;;;;;;;3.08;1.75;;;2.70;48.40;;;;;;4996166;28;20506;-81
2021/01/16 03:27:21;;;;;;;3.10;1.48;;;;;;;;;;5004061;28;20117;-80
2021/01/16 03:29:47;;;;;;;2.00;1.80;;;;;;;;;;5014777;28;20025;-81
2021/01/16 03:32:13;;;;;;;4.88;2.25;;;;;;;;;;5013507;28;20025;-80
2021/01/16 03:34:41;;;;;;;3.05;1.92;;;2.60;47.40;;;;;;5014772;28;20101;-81
2021/01/16 03:37:07;;;;;;;2.40;1.23;;;;;;;;;;5014672;28;20022;-80
2021/01/16 03:39:34;;;;;;;3.30;1.85;;;2.20;48.10;;;;;;5013422;28;20052;-80
2021/01/16 03:42:00;;;;;;;3.05;1.83;;;;;;;;;;5013337;28;20081;-80
2021/01/16 03:44:26;;;;;;;2.70;1.23;;;;;;;;;;5000775;28;20045;-80
2021/01/16 03:46:52;;;;;;;2.35;1.80;;;;;;;;;;5014481;28;20056;-81
2021/01/16 03:49:18;;;;;;;4.93;2.22;;;;;;;;;;5013030;28;20091;-81
2021/01/16 03:51:45;;;;;;;3.38;1.88;;;;;;;;;;5002006;28;20026;-80
2021/01/16 03:54:11;;;;;;;3.72;1.70;;;;;;;;;;4997993;28;20098;-80
2021/01/16 03:56:37;;;;;;;2.70;1.95;;;;;;;;;;5005068;28;20060;-80
2021/01/16 03:59:03;;;;;;;2.95;2.42;;;2.40;48.20;;;;;;5008674;28;20037;-80
2021/01/16 04:01:31;;;;;;;5.63;1.88;;;2.40;47.30;;;;;;5007251;28;20490;-80
2021/01/16 04:03:57;;;;;;;;;;;2.40;47.00;;;;;;5007623;28;20022;-81
2021/01/16 04:06:23;;;;;;;4.53;2.33;;;2.20;47.70;;;;;;5026877;28;20266;-81
2021/01/16 04:08:49;;;;;;;6.18;2.55;;;;;;;;;;5014195;28;20097;-80
2021/01/16 04:11:15;;;;;;;1.70;1.30;;;;;;;;;;5012663;28;20112;-80
2021/01/16 04:13:41;;;;;;;5.55;1.65;;;;;;;;;;5014320;28;20022;-81
2021/01/16 04:16:07;;;;;;;3.72;1.52;;;;;;;;;;5011814;28;20482;-81
2021/01/16 04:18:34;;;;;;;1.92;1.45;;;2.90;45.50;;;;;;4993330;28;20446;-81
2021/01/16 04:21:00;;;;;;;2.47;1.63;;;;;;;;;;4994496;28;20104;-81
2021/01/16 04:23:26;;;;;;;2.08;1.38;;;;;;;;;;5014353;28;20060;-80
2021/01/16 04:25:54;;;;;;;3.13;1.70;;;3.00;44.90;;;;;;5001590;28;20033;-81
2021/01/16 04:28:20;;;;;;;1.83;1.55;;;;;;;;;;5008233;28;20414;-81
2021/01/16 04:30:46;;;;;;;2.25;1.75;;;;;;;;;;5003562;28;20942;-81
2021/01/16 04:33:12;;;;;;;3.83;1.63;;;;;;;;;;4995799;28;20026;-80
2021/01/16 04:35:39;;;;;;;4.18;2.15;;;;;;;;;;5002560;28;20104;-80
2021/01/16 04:38:05;;;;;;;5.22;2.63;;;;;;;;;;5013754;28;20034;-80
2021/01/16 04:40:31;;;;;;;3.33;1.48;;;;;;;;;;5010757;28;20026;-81
2021/01/16 04:42:57;;;;;;;5.18;2.13;;;;;;;;;;5001557;28;20073;-80
2021/01/16 04:45:23;;;;;;;5.50;2.55;;;3.30;44.20;;;;;;4999461;28;20050;-81
2021/01/16 04:47:50;;;;;;;1.92;1.73;;;3.20;44.70;;;;;;5012325;28;20044;-81
2021/01/16 04:50:18;;;;;;;3.08;1.83;;;3.50;44.90;;;;;;5012171;28;20029;-80
2021/01/16 04:52:45;;;;;;;8.75;2.10;;;4.00;43.90;;;;;;4998249;28;20026;-81
2021/01/16 04:55:15;;;;;;;4.07;2.17;;;4.30;43.00;;;;;;5012250;28;20026;-80
2021/01/16 04:57:42;;;;;;;4.80;2.10;;;3.90;43.00;;;;;;5013730;28;20018;-81
2021/01/16 05:00:13;;;;;;;5.00;2.92;;;3.60;42.20;;;;;;5012425;28;20413;-80
2021/01/16 05:02:41;;;;;;;3.75;2.38;;;3.50;43.40;;;;;;5008495;28;20026;-81
2021/01/16 05:05:11;;;;;;;4.13;2.92;;;3.50;44.30;;;;;;5001737;28;20030;-81
2021/01/16 05:07:37;;;;;;;5.32;2.90;;;;;;;;;;5011080;28;20137;-80
2021/01/16 05:10:05;;;;;;;2.20;1.80;;;3.30;43.90;;;;;;5000252;28;20064;-80
2021/01/16 05:12:31;;;;;;;3.42;2.63;;;;;;;;;;5011797;28;20022;-81
2021/01/16 05:15:05;;;;;;;2.30;2.10;;;3.00;44.00;;;;;;5011889;28;20017;-80
2021/01/16 05:17:35;;;;;;;2.58;1.70;;;3.20;43.80;;;;;;5011820;28;20109;-81
2021/01/16 05:20:02;;;;;;;2.30;1.27;;;;;;;;;;5011984;28;20155;-80
2021/01/16 05:22:28;;;;;;;5.15;1.95;;;;;;;;;;5000922;28;20022;-81
2021/01/16 05:25:02;;;;;;;8.15;1.33;;;2.80;44.10;;;;;;5010214;28;20018;-81
2021/01/16 05:27:38;;;;;;;3.15;1.63;;;2.60;44.20;;;;;;5011419;28;20398;-80
2021/01/16 05:30:09;;;;;;;5.22;1.42;;;2.60;44.60;;;;;;5011329;28;20218;-80
2021/01/16 05:32:35;;;;;;;2.90;2.65;;;;;;;;;;5012907;28;20050;-81
2021/01/16 05:35:19;;;;;;;5.40;2.80;;;2.50;44.70;;;;;;5011453;28;20389;-80
2021/01/16 05:37:47;;;;;;;2.78;2.58;;;2.50;44.60;;;;;;5011611;28;20056;-81
2021/01/16 05:40:13;;;;;;;5.07;3.00;;;;;;;;;;5010933;28;20022;-80
2021/01/16 05:42:40;;;;;;;2.33;1.33;;;;;;;;;;4993255;28;20041;-81
2021/01/16 05:45:09;;;;;;;2.28;1.88;;;2.80;44.30;;;;;;5004233;28;20084;-81
2021/01/16 05:47:36;;;;;;;4.88;2.55;;;;;;;;;;5014951;28;20039;-81
2021/01/16 05:50:03;;;;;;;1.98;1.52;;;2.80;43.50;;;;;;5015658;28;20018;-80
2021/01/16 05:52:29;;;;;;;2.60;2.00;;;2.70;43.40;;;;;;5015306;28;20026;-80
2021/01/16 05:55:01;;;;;;;6.80;3.00;;;2.70;44.60;;;;;;5015816;28;20053;-81
2021/01/16 05:57:27;;;;;;;8.48;2.55;;;;;;;;;;5012996;28;20030;-81
2021/01/16 06:00:01;;;;;;;1.75;1.30;;;2.70;44.80;;;;;;5004136;28;20116;-81
2021/01/16 06:02:32;;;;;;;5.95;2.15;;;2.70;44.20;;;;;;5015189;28;20406;-81
2021/01/16 06:04:58;;;;;;;3.90;2.08;;;;;;;;;;5008489;28;20026;-80
2021/01/16 06:07:26;;;;;;;5.28;2.45;;;2.90;44.70;;;;;;5009153;28;20072;-81
2021/01/16 06:09:54;;;;;;;4.57;1.63;;;3.50;42.00;;;;;;5002279;28;20033;-81
2021/01/16 06:12:21;;;;;;;13.27;5.53;;;3.60;41.50;;;;;;5031741;28;20026;-81
2021/01/16 06:14:48;;;;;;;14.15;5.78;;;;;;;;;;5029556;28;20104;-81
2021/01/16 06:17:16;;;;;;;18.00;6.55;;;3.90;41.40;;;;;;5015092;28;20030;-81
2021/01/16 06:19:45;;;;;;;;;;;3.90;41.40;;;;;;5015193;28;20486;-81
2021/01/16 06:22:12;;;;;;;5.32;3.33;;;4.10;40.70;;;;;;5015010;28;20329;-81
2021/01/16 06:24:39;;;;;;;3.25;2.67;;;4.10;41.20;;;;;;5013803;28;20029;-81
2021/01/16 06:27:05;;;;;;;2.03;1.83;;;4.00;41.00;;;;;;5003499;28;20058;-81
2021/01/16 06:29:36;;;;;;;3.65;2.35;;;4.10;40.20;;;;;;5014243;28;20406;-81
2021/01/16 06:32:10;;;;;;;2.25;1.77;;;4.10;40.20;;;;;;5002246;28;20029;-81
2021/01/16 06:34:42;;;;;;;2.97;1.80;;;4.20;40.10;;;;;;5031036;28;20069;-81
2021/01/16 06:37:16;;;;;;;2.85;2.47;;;4.60;62.30;;;;;;5014522;28;20026;-80
2021/01/16 06:39:47;;;;;;;4.20;2.08;;;4.10;40.30;;;;;;5016181;28;20026;-81
2021/01/16 06:42:22;;;;;;;4.85;2.80;;;4.00;61.60;;;;;;5011486;28;20093;-81
2021/01/16 06:44:49;;;;;;;3.67;1.58;;;;;;;;;;5004955;28;20049;-81
2021/01/16 06:47:15;;;;;;;2.45;1.85;;;;;;;;;;4999451;28;20480;-81
2021/01/16 06:49:41;;;;;;;5.18;2.40;;;;;;;;;;4996106;28;20097;-81
2021/01/16 06:52:08;;;;;;;4.05;2.40;;;4.40;40.30;;;;;;5008476;28;20026;-81
2021/01/16 06:54:37;;;;;;;2.03;1.80;;;4.30;40.50;;;;;;5001302;28;20437;-81
2021/01/16 06:57:10;;;;;;;3.85;2.47;;;;;;;;;;5020880;28;20060;-81
2021/01/16 06:59:43;;;;;;;4.32;2.17;;;4.60;39.30;;;;;;4996229;28;20030;-81
2021/01/16 07:02:24;;;;;;;4.15;2.15;;;4.50;39.40;;;;;;4994593;28;20530;-81
2021/01/16 07:04:56;;;;;;;8.07;2.90;;;4.50;39.30;;;;;;5014424;28;20057;-81
2021/01/16 07:07:41;;;;;;;5.20;2.78;;;4.50;39.30;;;;;;5014015;28;20037;-80
2021/01/16 07:10:09;;;;;;;3.30;2.47;;;4.10;40.20;;;;;;5002875;28;20033;-81
2021/01/16 07:12:36;;;;;;;15.18;3.30;;;3.30;42.30;;;;;;5000290;28;20109;-80
2021/01/16 07:15:07;;;;;;;3.65;2.38;;;3.00;43.00;;;;;;4995809;28;20030;-80
2021/01/16 07:17:33;;;;;;;3.88;2.50;;;;;;;;;;4995755;28;20065;-81
2021/01/16 07:20:00;;;;;;;6.47;2.63;;;;;;;;;;5001444;28;20068;-80
2021/01/16 07:22:30;;;;;;;4.53;2.83;;;2.80;43.20;;;;;;5015179;28;20410;-81
2021/01/16 07:24:57;;;;;;;2.83;2.13;;;2.50;43.30;;;;;;5013439;28;20033;-80
2021/01/16 07:27:25;;;;;;;3.78;2.15;;;2.40;43.40;;;;;;5023317;28;20032;-81
2021/01/16 07:29:51;;;;;;;;;;;2.40;43.60;;;;;;5013990;28;20108;-80
2021/01/16 07:32:17;;;;;;;3.97;2.45;;;2.30;43.20;;;;;;5013716;28;19945;-80
2021/01/16 07:34:48;;;;;;;3.63;1.65;;;2.60;43.80;;;;;;5001119;28;20098;-80
2021/01/16 07:37:14;;;;;;;2.17;1.85;;;2.60;43.40;;;;;;5014728;28;20026;-80
2021/01/16 07:39:43;;;;;;;5.82;2.00;;;2.60;43.30;;;;;;5003750;28;20026;-81
2021/01/16 07:42:12;;;;;;;4.90;2.47;;;2.60;43.30;;;;;;5010947;28;20506;-80
2021/01/16 07:44:42;;;;;;;6.53;1.90;;;2.50;42.80;;;;;;5002239;28;20517;-80
2021/01/16 07:47:22;;;;;;;3.60;2.25;;;2.50;43.20;;;;;;5012983;28;20030;-80
2021/01/16 07:49:58;;;;;;;5.75;3.00;;;;;;;;;;4993719;28;20394;-80
2021/01/16 07:52:26;;;;;;;18.42;8.50;;;2.50;43.20;;;;;;5013050;28;20062;-81
2021/01/16 07:55:07;;;;;;;13.85;4.88;;;2.50;43.20;;;;;;5014431;28;20025;-80
2021/01/16 07:57:33;;;;;;;5.28;3.35;;;;;;;;;;5014216;28;20025;-81
2021/01/16 08:00:09;;;;;;;5.35;3.75;;;2.50;43.20;;;;;;5005390;28;20027;-80
2021/01/16 08:03:18;;;;;;;7.38;3.60;;;2.80;65.30;;;;;;4997609;28;20037;-80
2021/01/16 08:06:06;;;;;;;9.07;4.63;;;2.90;65.30;;;;;;5000380;28;20033;-80
2021/01/16 08:08:57;;;;;;;6.72;3.22;;;2.70;43.40;;;;;;5004641;28;20035;-81
2021/01/16 08:11:35;;;;;;;7.18;3.60;;;2.50;66.00;;;;;;5011407;28;20022;-80
2021/01/16 08:14:05;;;;;;;3.97;2.15;;;2.70;43.40;;;;;;5013882;28;20152;-81
2021/01/16 08:16:32;;;;;;;4.72;2.85;;;2.60;43.40;;;;;;5014594;28;20025;-81
2021/01/16 08:19:10;;;;;;;3.00;2.03;;;2.40;65.40;;;;;;5021112;28;20025;-81
2021/01/16 08:21:36;;;;;;;2.83;2.08;;;;;;;;;;5012502;28;20768;-81
2021/01/16 08:24:05;;;;;;;4.70;2.28;;;2.60;66.20;;;;;;5012710;28;20406;-81
2021/01/16 08:26:32;;;;;;;14.77;3.38;;;2.50;43.30;;;;;;5013699;28;20030;-81
2021/01/16 08:28:59;;;;;;;6.50;4.22;;;2.50;43.20;;;;;;5012694;28;20023;-81
2021/01/16 08:31:34;;;;;;;4.50;1.75;;;;;;;;;;5011799;28;20037;-80
2021/01/16 08:34:00;;;;;;;3.33;1.92;;;;;;;;;;5002097;28;20534;-81
2021/01/16 08:36:28;;;;;;;5.10;2.97;;;2.80;42.80;;;;;;5016979;28;20072;-81
2021/01/16 08:38:53;;;;;;;;;;;2.80;42.80;;;;;;5012697;28;20025;-81
2021/01/16 08:41:26;;;;;;;5.47;2.53;;;2.70;42.40;;;;;;5004580;28;19906;-80
2021/01/16 08:43:57;;;;;;;4.28;2.63;;;3.20;64.20;;;;;;5008557;28;20434;-81
2021/01/16 08:46:35;;;;;;;2.63;1.98;;;2.90;41.70;;;;;;5012246;28;20026;-81
2021/01/16 08:49:15;;;;;;;5.40;2.42;;;2.80;42.20;;;;;;5012474;28;20064;-81
2021/01/16 08:51:51;;;;;;;6.55;2.60;;;2.70;42.80;;;;;;5013757;28;20550;-80
2021/01/16 08:54:22;;;;;;;6.47;2.95;;;2.70;42.20;;;;;;5011675;28;20026;-80
2021/01/16 08:56:53;;;;;;;7.07;2.20;;;3.00;41.40;;;;;;5011652;28;20473;-80
2021/01/16 08:59:26;;;;;;;2.38;1.92;;;2.90;64.00;;;;;;5008148;28;20450;-81
2021/01/16 09:01:54;;;;;;;8.38;2.80;;;2.90;42.20;;;;;;5003083;28;20040;-81
2021/01/16 09:04:29;;;;;;;12.00;2.38;;;2.90;42.20;;;;;;5013295;28;20026;-81
2021/01/16 09:07:16;;;;;;;6.30;2.75;;;2.80;42.20;;;;;;5011954;28;20122;-81
2021/01/16 09:09:58;;;;;;;8.25;2.50;;;2.50;43.20;;;;;;5013774;28;20057;-80
2021/01/16 09:12:35;;;;;;;3.22;2.08;;;2.60;42.70;;;;;;5018298;28;20029;-81
2021/01/16 09:15:24;;;;;;;4.10;3.17;;;2.60;42.40;;;;;;4999339;28;20025;-81
2021/01/16 09:18:14;;;;;;;5.18;3.97;;;2.60;65.80;;;;;;5013335;28;20053;-80
2021/01/16 09:20:40;;;;;;;3.78;3.40;;;;;;;;;;5012774;28;20083;-81
2021/01/16 09:23:19;;;;;;;4.13;2.35;;;3.00;64.60;;;;;;5011330;28;20116;-81
2021/01/16 09:25:49;;;;;;;10.40;4.93;;;3.10;42.10;;;;;;5011826;28;20026;-81
2021/01/16 09:28:16;;;;;;;5.35;2.80;;;;;;;;;;5007663;28;20019;-81
2021/01/16 09:30:42;;;;;;;6.05;3.90;;;;;;;;;;4992554;28;20085;-80
2021/01/16 09:33:25;;;;;;;6.45;3.00;;;3.90;61.90;;;;;;5005752;28;20497;-81
2021/01/16 09:35:51;;;;;;;10.38;4.53;;;4.10;39.60;;;;;;5002395;28;20033;-81
2021/01/16 09:38:19;;;;;;;6.30;3.03;;;3.80;40.30;;;;;;5012878;28;20021;-81
2021/01/16 09:40:45;;;;;;;;;;;3.80;40.30;;;;;;5013192;28;20555;-81
2021/01/16 09:43:19;;;;;;;4.57;3.10;;;3.50;40.80;;;;;;5012885;28;19956;-80
2021/01/16 09:46:11;;;;;;;7.13;3.10;;;3.50;40.40;;;;;;5012798;28;20413;-81
2021/01/16 09:48:41;;;;;;;4.40;2.83;;;3.40;40.10;;;;;;5010439;28;20037;-80
2021/01/16 09:51:09;;;;;;;4.15;1.77;;;3.20;41.20;;;;;;4999518;28;20560;-80
2021/01/16 09:53:35;;;;;;;3.58;2.53;;;3.40;42.30;;;;;;5000659;28;20080;-81
2021/01/16 09:56:01;;;;;;;5.38;3.22;;;;;;;;;;5010069;28;20033;-81
2021/01/16 09:58:38;;;;;;;4.18;2.65;;;3.50;42.40;;;;;;5002446;28;20442;-80
2021/01/16 10:01:24;;;;;;;9.03;3.47;;;3.40;41.50;;;;;;5009634;28;20029;-81
2021/01/16 10:03:58;;;;;;;7.72;2.25;;;3.10;64.40;;;;;;5012958;28;20745;-80
2021/01/16 10:06:33;;;;;;;5.05;3.05;;;3.50;42.30;;;;;;5011309;28;20037;-81
2021/01/16 10:08:59;;;;;;;5.95;2.90;;;;;;;;;;5012684;28;20030;-81
2021/01/16 10:11:44;;;;;;;6.57;3.60;;;3.40;43.20;;;;;;4998658;28;20057;-81
2021/01/16 10:14:17;;;;;;;6.05;4.50;;;3.30;43.10;;;;;;5011423;28;20037;-81
2021/01/16 10:16:47;;;;;;;6.15;2.85;;;3.20;43.80;;;;;;4999749;28;20034;-80
2021/01/16 10:19:15;;;;;;;6.63;3.78;;;3.20;43.90;;;;;;5012458;28;20038;-81
2021/01/16 10:21:57;;;;;;;5.28;2.97;;;3.30;44.10;;;;;;4998383;28;20023;-81
2021/01/16 10:24:25;;;;;;;10.90;5.38;;;3.40;43.90;;;;;;5011008;28;20100;-80
2021/01/16 10:26:51;;;;;;;9.50;2.90;;;;;;;;;;5012189;28;20065;-80
2021/01/16 10:29:30;;;;;;;7.78;4.43;;;3.30;65.70;;;;;;5011478;28;20509;-80
2021/01/16 10:32:22;;;;;;;6.40;3.88;;;3.20;43.70;;;;;;5024627;28;20021;-81
2021/01/16 10:34:57;;;;;;;5.07;3.13;;;3.40;65.40;;;;;;5027715;28;20040;-79
2021/01/16 10:37:24;;;;;;;7.57;4.22;;;3.30;44.00;;;;;;5010388;28;20080;-80
2021/01/16 10:39:50;;;;;;;12.65;5.25;;;;;;;;;;4996206;28;20026;-80
2021/01/16 10:42:18;;;;;;;6.05;2.85;;;3.30;43.90;;;;;;5012239;28;20109;-79
2021/01/16 10:44:44;;;;;;;9.18;4.38;;;;;;;;;;5015917;28;20526;-80
2021/01/16 10:47:25;;;;;;;3.70;2.40;;;3.80;64.00;;;;;;5015372;28;20057;-79
2021/01/16 10:49:51;;;;;;;3.65;2.40;;;;;;;;;;5004813;28;20491;-80
2021/01/16 10:52:28;;;;;;;6.15;2.78;;;4.10;40.00;;;;;;4996367;28;20502;-81
2021/01/16 10:55:02;;;;;;;4.28;2.78;;;4.20;40.10;;;;;;5014186;28;20041;-80
2021/01/16 10:57:46;;;;;;;4.78;2.80;;;4.30;38.70;;;;;;5014002;28;20061;-80
2021/01/16 11:00:17;;;;;;;3.28;2.72;;;4.40;39.60;;;;;;5014124;28;20030;-79
2021/01/16 11:02:48;;;;;;;5.60;2.72;;;4.30;39.90;;;;;;5014140;28;20022;-81
2021/01/16 11:05:18;;;;;;;6.60;4.15;;;;;;;;;;5005172;28;20388;-80
2021/01/16 11:07:45;;;;;;;12.98;3.70;;;;;;;;;;5009556;28;20014;-80
2021/01/16 11:10:12;;;;;;;8.05;3.33;;;5.10;37.90;;;;;;5003540;28;20032;-81
2021/01/16 11:12:42;;;;;;;5.18;2.95;;;5.30;38.30;;;;;;5015227;28;20076;-80
2021/01/16 11:15:20;;;;;;;4.55;2.80;;;5.80;58.60;;;;;;5015945;28;20080;-81
2021/01/16 11:17:52;;;;;;;8.95;4.18;;;5.40;59.40;;;;;;5014827;28;20521;-80
2021/01/16 11:20:20;;;;;;;6.07;2.67;;;5.40;37.80;;;;;;5005570;28;20498;-80
2021/01/16 11:23:09;;;;;;;8.10;2.65;;;5.70;37.80;;;;;;4996091;28;20018;-80
2021/01/16 11:25:55;;;;;;;6.68;3.58;;;5.80;59.50;;;;;;5013717;28;20036;-81
2021/01/16 11:28:28;;;;;;;7.30;3.30;;;5.60;58.90;;;;;;5013261;28;20446;-80
2021/01/16 11:31:06;;;;;;;6.30;2.70;;;5.60;37.60;;;;;;5002228;28;20077;-80
2021/01/16 11:33:33;;;;;;;3.85;2.17;;;5.30;60.60;;;;;;5014319;28;20040;-80
2021/01/16 11:36:14;;;;;;;10.80;2.83;;;5.20;38.80;;;;;;5014829;28;20113;-80
2021/01/16 11:38:48;;;;;;;5.18;2.03;;;5.90;57.40;;;;;;5013612;28;20347;-81
2021/01/16 11:41:34;;;;;;;8.82;3.63;;;5.70;59.10;;;;;;5014966;28;20018;-80
2021/01/16 11:44:00;;;;;;;4.70;2.23;;;;;;;;;;5012477;28;20046;-80
2021/01/16 11:46:27;;;;;;;8.85;3.20;;;5.70;36.50;;;;;;5013370;28;20034;-80
2021/01/16 11:48:53;;;;;;;8.18;3.67;;;5.60;59.10;;;;;;5013259;28;20029;-79
2021/01/16 11:51:20;;;;;;;4.20;2.45;;;;;;;;;;5013373;28;20018;-80
2021/01/16 11:53:50;;;;;;;7.20;3.17;;;5.30;38.10;;;;;;5000848;28;20061;-79
2021/01/16 11:56:20;;;;;;;8.27;3.67;;;5.50;38.70;;;;;;5009982;28;20109;-80
2021/01/16 11:58:49;;;;;;;2.58;1.73;;;6.00;37.00;;;;;;5006727;28;20025;-80
2021/01/16 12:01:16;;;;;;;5.90;2.92;;;5.70;35.70;;;;;;4995004;28;20547;-79
2021/01/16 12:03:43;;;;;;;5.95;3.03;;;;;;;;;;5005218;28;20048;-79
2021/01/16 12:06:16;;;;;;;8.50;4.13;;;5.60;38.40;;;;;;5010298;28;20424;-80
2021/01/16 12:08:46;;;;;;;8.27;3.67;;;5.60;39.10;;;;;;5005950;28;20486;-79
2021/01/16 12:11:13;;;;;;;13.57;3.60;;;5.10;38.50;;;;;;5012790;28;20033;-80
2021/01/16 12:13:48;;;;;;;6.15;3.90;;;5.00;38.80;;;;;;5014206;28;20030;-80
2021/01/16 12:16:14;;;;;;;10.35;2.83;;;;;;;;;;5013993;28;20143;-80
2021/01/16 12:18:41;;;;;;;5.80;3.50;;;5.10;38.90;;;;;;5014201;28;20026;-80
2021/01/16 12:21:09;;;;;;;5.22;3.95;;;5.30;38.30;;;;;;5012635;28;20022;-80
2021/01/16 12:23:46;;;;;;;7.10;2.97;;;5.30;59.90;;;;;;5012671;28;20030;-81
2021/01/16 12:26:16;;;;;;;9.35;4.38;;;5.30;39.20;;;;;;5009721;28;20046;-80
2021/01/16 12:28:50;;;;;;;3.67;2.45;;;5.50;39.50;;;;;;5006369;28;20026;-83
2021/01/16 12:31:22;;;;;;;9.05;3.63;;;5.70;37.90;;;;;;5005228;28;20237;-82
2021/01/16 12:33:49;;;;;;;5.43;2.45;;;;;;;;;;5010339;28;20026;-81
2021/01/16 12:36:15;;;;;;;8.52;3.40;;;;;;;;;;5010145;28;20030;-81
2021/01/16 12:38:41;;;;;;;9.00;4.68;;;;;;;;;;5011338;28;20029;-81
2021/01/16 12:41:07;;;;;;;7.28;3.72;;;;;;;;;;5005345;28;20018;-84
2021/01/16 12:43:33;;;;;;;4.90;2.72;;;;;;;;;;4996699;28;20507;-78
2021/01/16 12:46:09;;;;;;;5.95;2.63;;;;;;;;;;4999540;28;20022;-78
2021/01/16 12:48:35;;;;;;;5.95;2.70;;;;;;;;;;5001735;28;20062;-82
2021/01/16 12:51:04;;;;;;;4.28;3.42;;;5.80;37.90;;;;;;5010899;28;20018;-80
2021/01/16 12:53:30;;;;;;;8.95;4.70;;;;;;;;;;5004103;28;20030;-80
2021/01/16 12:55:56;;;;;;;13.80;4.22;;;;;;;;;;5010560;28;20028;-81
2021/01/16 12:58:22;;;;;;;6.80;3.42;;;;;;;;;;4998554;28;20445;-80
2021/01/16 13:00:48;;;;;;;8.90;3.58;;;5.80;59.10;;;;;;5007882;28;20050;-80
2021/01/16 13:03:14;;;;;;;8.63;3.33;;;;;;;;;;4998868;28;20386;-81
2021/01/16 13:05:40;;;;;;;4.47;2.97;;;;;;;;;;5011580;28;20053;-80
2021/01/16 13:08:08;;;;;;;5.93;2.75;;;6.00;37.30;;;;;;5000874;28;20436;-80
2021/01/16 13:10:35;;;;;;;;;;;6.20;37.10;;;;;;5011915;28;20063;-80
2021/01/16 13:13:09;;;;;;;7.43;3.38;;;6.20;37.10;;;;;;4994395;28;19906;-80
2021/01/16 13:15:40;;;;;;;4.45;2.83;;;6.00;37.00;;;;;;5004860;28;20079;-81
2021/01/16 13:18:20;;;;;;;10.13;3.55;;;5.70;58.70;;;;;;4994555;28;20097;-80
2021/01/16 13:20:50;;;;;;;14.70;6.70;;;6.10;37.10;;;;;;5004463;28;20087;-80
2021/01/16 13:23:16;;;;;;;9.23;5.82;;;5.90;59.90;;;;;;5011456;28;20084;-81
2021/01/16 13:25:44;;;;;;;7.38;5.05;;;6.00;38.10;;;;;;5019852;28;20409;-81
2021/01/16 13:28:10;;;;;;;6.40;4.00;;;;;;;;;;5012284;28;20490;-81
2021/01/16 13:30:39;;;;;;;17.13;3.72;;;6.30;37.20;;;;;;5011373;28;20406;-80
2021/01/16 13:33:05;;;;;;;4.18;2.63;;;;;;;;;;4996863;28;20098;-80
2021/01/16 13:35:31;;;;;;;10.27;4.60;;;;;;;;;;4996578;28;20049;-81
2021/01/16 13:38:00;;;;;;;12.15;7.45;;;6.00;38.20;;;;;;5011303;28;20030;-81
2021/01/16 13:40:29;;;;;;;14.90;8.35;;;;;;;;;;5008640;28;20034;-81
2021/01/16 13:43:05;;;;;;;7.00;3.33;;;6.20;35.90;;;;;;5002410;28;20040;-81
2021/01/16 13:45:31;;;;;;;5.43;3.70;;;;;;;;;;5006581;28;20052;-79
2021/01/16 13:48:00;;;;;;;8.00;4.13;;;6.50;35.60;;;;;;5004048;28;20467;-81